Lake Elsinore, California
Current Conditions -  °F | °C
As of 10:35 PM on Thursday 30 Oct 2014 (Local Time) from KF70 Reporting Station
Clear Clear  
Wind Chill: 61°   Ceiling: Unl
Heat Index: 61°   Visibility: 10mi
Dew Point: 57°   Wind: 3mph
Humidity: 88%   Direction: 110°ESE
Pressure: 30"   Gusts: NA
Location:  33.67°N, 117.32°W
Report Text: KF70 310535Z AUTO 11003KT 10SM CLR 16/14 A3000 RMK AO1
Loading
Personal Weather Stations






























Interactive Weather Map
Tropical Storm Tracking
New forecast layout! Learn more

10-Day Weather Forecast

Advertisements
Track Severe Weather on mobile